Time;durP1;ratioP1;P1;durP2;ratioP2;P2;SDS_P1;SDS_P2;PMS_P1;PMS_P2;Temp;Humidity;BMP_temperature;BMP_pressure;BME280_temperature;BME280_humidity;BME280_pressure;Samples;Min_cycle;Max_cycle;Signal;HPM_P1;HPM_P2
2023/06/26 00:02:07;;;;;;;1.10;0.68;;;23.20;96.60;;;;;;5103993;27;20218;-82
2023/06/26 00:04:37;;;;;;;0.93;0.60;;;23.20;97.00;;;;;;5097793;27;20914;-83
2023/06/26 00:07:05;;;;;;;3.10;0.40;;;23.20;96.60;;;;;;5105859;27;20203;-83
2023/06/26 00:09:34;;;;;;;0.35;0.35;;;23.20;96.60;;;;;;5114310;27;20189;-82
2023/06/26 00:12:02;;;;;;;1.00;0.47;;;23.20;96.50;;;;;;5103841;27;20280;-81
2023/06/26 00:14:31;;;;;;;0.95;0.88;;;23.20;96.40;;;;;;5100092;27;20205;-81
2023/06/26 00:16:59;;;;;;;1.02;0.63;;;23.20;96.40;;;;;;5109960;27;20554;-82
2023/06/26 00:19:29;;;;;;;0.68;0.57;;;23.20;96.40;;;;;;5103305;27;20189;-80
2023/06/26 00:21:57;;;;;;;0.45;0.45;;;23.20;96.40;;;;;;5097651;27;20194;-82
2023/06/26 00:24:25;;;;;;;0.40;0.40;;;23.20;96.40;;;;;;5104512;27;20200;-82
2023/06/26 00:26:54;;;;;;;0.20;0.20;;;23.20;96.30;;;;;;5097010;28;20193;-83
2023/06/26 00:29:22;;;;;;;0.50;0.50;;;23.30;96.30;;;;;;5095635;28;20200;-81
2023/06/26 00:31:51;;;;;;;0.82;0.63;;;23.20;96.30;;;;;;5101643;27;20189;-83
2023/06/26 00:34:19;;;;;;;0.50;0.50;;;23.30;96.30;;;;;;5097273;28;20193;-82
2023/06/26 00:36:49;;;;;;;0.50;0.50;;;23.30;96.30;;;;;;5104563;27;20664;-82
2023/06/26 00:39:17;;;;;;;0.52;0.50;;;23.30;96.40;;;;;;5107132;28;20227;-82
2023/06/26 00:41:45;;;;;;;0.75;0.50;;;23.30;96.30;;;;;;5111524;27;20215;-83
2023/06/26 00:44:14;;;;;;;0.38;0.38;;;23.30;96.40;;;;;;5104643;27;20198;-82
2023/06/26 00:46:43;;;;;;;0.75;0.75;;;23.30;96.50;;;;;;5100059;28;20192;-82
2023/06/26 00:49:11;;;;;;;0.35;0.35;;;23.30;96.50;;;;;;5098454;27;20212;-82
2023/06/26 00:51:40;;;;;;;1.65;1.17;;;23.30;96.50;;;;;;5104423;27;20569;-82
2023/06/26 00:54:09;;;;;;;1.65;0.80;;;23.30;96.60;;;;;;5105939;28;20575;-82
2023/06/26 00:56:38;;;;;;;0.55;0.52;;;23.30;96.50;;;;;;5104145;27;20189;-82
2023/06/26 00:59:06;;;;;;;1.40;1.30;;;23.30;96.50;;;;;;5098954;28;20693;-82
2023/06/26 01:01:35;;;;;;;1.20;1.02;;;23.30;96.50;;;;;;5113315;28;20196;-81
2023/06/26 01:04:03;;;;;;;0.55;0.45;;;23.30;96.40;;;;;;5102150;28;20202;-80
2023/06/26 01:06:35;;;;;;;2.65;0.60;;;23.30;96.50;;;;;;5101174;28;20593;-82
2023/06/26 01:09:04;;;;;;;0.30;0.30;;;23.30;96.40;;;;;;5112249;27;20280;-82
2023/06/26 01:11:34;;;;;;;3.05;0.90;;;23.30;96.50;;;;;;5104461;27;20649;-83
2023/06/26 01:14:03;;;;;;;0.20;0.20;;;23.20;96.50;;;;;;5111814;27;20212;-82
2023/06/26 01:16:32;;;;;;;1.17;1.08;;;23.20;96.50;;;;;;5104979;27;20195;-82
2023/06/26 01:19:00;;;;;;;0.25;0.25;;;23.20;96.60;;;;;;5112263;27;20289;-81
2023/06/26 01:21:32;;;;;;;0.50;0.50;;;23.20;96.60;;;;;;5106647;27;20200;-83
2023/06/26 01:24:10;;;;;;;2.83;0.70;;;23.20;96.60;;;;;;5104258;27;20187;-83
2023/06/26 01:26:42;;;;;;;0.50;0.50;;;23.20;96.70;;;;;;5109282;27;20211;-82
2023/06/26 01:29:11;;;;;;;1.05;0.65;;;23.20;96.70;;;;;;5111264;27;20588;-81
2023/06/26 01:31:41;;;;;;;0.93;0.60;;;23.20;96.60;;;;;;5116179;27;20193;-82
2023/06/26 01:34:09;;;;;;;1.55;0.35;;;23.20;96.70;;;;;;5108629;27;20283;-82
2023/06/26 01:36:38;;;;;;;0.93;0.88;;;23.20;96.70;;;;;;5108554;27;20241;-82
2023/06/26 01:39:08;;;;;;;2.42;0.50;;;23.20;96.70;;;;;;5106580;27;20216;-83
2023/06/26 01:41:37;;;;;;;0.20;0.20;;;23.20;96.70;;;;;;5103756;28;20191;-83
2023/06/26 01:44:18;;;;;;;1.23;1.13;;;23.20;96.70;;;;;;5108037;27;20188;-82
2023/06/26 01:46:58;;;;;;;0.30;0.30;;;23.20;96.70;;;;;;5099425;28;20185;-83
2023/06/26 01:49:34;;;;;;;0.20;0.20;;;23.10;96.70;;;;;;5106211;28;20525;-82
2023/06/26 01:52:09;;;;;;;0.30;0.25;;;23.20;96.80;;;;;;5098629;28;20182;-81
2023/06/26 01:54:43;;;;;;;0.30;0.30;;;23.10;96.70;;;;;;5102147;28;20185;-83
2023/06/26 01:57:12;;;;;;;1.15;0.55;;;23.10;96.80;;;;;;5096383;28;20205;-81
2023/06/26 01:59:44;;;;;;;0.63;0.45;;;23.10;96.70;;;;;;5098020;27;20316;-83
2023/06/26 02:02:12;;;;;;;0.50;0.50;;;23.10;96.70;;;;;;5105828;27;20224;-82
2023/06/26 02:04:42;;;;;;;0.30;0.30;;;23.20;96.70;;;;;;5116845;27;20262;-82
2023/06/26 02:07:10;;;;;;;0.40;0.40;;;23.20;96.60;;;;;;5100809;27;20189;-81
2023/06/26 02:09:38;;;;;;;0.47;0.47;;;23.20;96.60;;;;;;5104854;27;20198;-82
2023/06/26 02:12:07;;;;;;;0.20;0.20;;;23.20;96.60;;;;;;5106944;27;20213;-81
2023/06/26 02:14:36;;;;;;;0.25;0.25;;;23.20;96.60;;;;;;5099277;28;20190;-82
2023/06/26 02:17:06;;;;;;;0.30;0.30;;;23.20;96.60;;;;;;5102385;27;20198;-81
2023/06/26 02:19:35;;;;;;;0.85;0.73;;;23.20;96.50;;;;;;5099952;28;20274;-81
2023/06/26 02:22:03;;;;;;;0.70;0.70;;;23.20;96.50;;;;;;5104167;27;20193;-83
2023/06/26 02:24:32;;;;;;;0.20;0.20;;;23.20;96.40;;;;;;5096625;28;20631;-81
2023/06/26 02:27:00;;;;;;;1.35;0.80;;;23.20;96.40;;;;;;5109775;27;20192;-81
2023/06/26 02:29:29;;;;;;;0.20;0.20;;;23.20;96.80;;;;;;5109517;27;20608;-80
2023/06/26 02:31:57;;;;;;;1.55;0.75;;;23.20;96.40;;;;;;5107170;28;20185;-81
2023/06/26 02:34:27;;;;;;;1.73;0.57;;;23.20;96.50;;;;;;5099840;28;20203;-81
2023/06/26 02:36:55;;;;;;;0.75;0.30;;;23.20;96.40;;;;;;5098346;27;20193;-81
2023/06/26 02:39:23;;;;;;;0.60;0.60;;;23.20;96.40;;;;;;5106535;27;20221;-82
2023/06/26 02:41:52;;;;;;;0.30;0.30;;;23.20;96.40;;;;;;5109858;27;20186;-81
2023/06/26 02:44:21;;;;;;;0.38;0.38;;;23.20;96.40;;;;;;5116483;27;20650;-81
2023/06/26 02:46:49;;;;;;;0.65;0.52;;;23.20;96.40;;;;;;5111385;27;20214;-81
2023/06/26 02:49:17;;;;;;;0.30;0.30;;;23.20;96.40;;;;;;5094558;28;20296;-81
2023/06/26 02:51:51;;;;;;;1.17;0.38;;;23.20;96.50;;;;;;5102310;28;20201;-82
2023/06/26 02:54:19;;;;;;;0.32;0.32;;;23.10;96.40;;;;;;5106598;27;20189;-81
2023/06/26 02:56:48;;;;;;;0.52;0.50;;;23.10;96.40;;;;;;5098991;27;20546;-82
2023/06/26 02:59:19;;;;;;;5.10;1.02;;;23.10;96.40;;;;;;5107381;27;20217;-82
2023/06/26 03:01:47;;;;;;;0.30;0.30;;;23.10;96.40;;;;;;5094979;27;20202;-81
2023/06/26 03:04:17;;;;;;;0.45;0.45;;;23.10;96.40;;;;;;5109091;27;20219;-81
2023/06/26 03:06:46;;;;;;;1.40;0.77;;;23.20;96.40;;;;;;5102799;27;20213;-81
2023/06/26 03:09:16;;;;;;;0.85;0.55;;;23.20;96.40;;;;;;5118090;27;20192;-82
2023/06/26 03:11:45;;;;;;;0.50;0.50;;;23.20;96.40;;;;;;5100134;27;20270;-82
2023/06/26 03:14:13;;;;;;;0.57;0.57;;;23.20;96.40;;;;;;5095652;27;20212;-82
2023/06/26 03:16:42;;;;;;;0.50;0.50;;;23.20;96.40;;;;;;5098595;27;20569;-82
2023/06/26 03:19:10;;;;;;;0.50;0.40;;;23.20;96.40;;;;;;5111454;27;20208;-82
2023/06/26 03:21:39;;;;;;;0.85;0.40;;;23.20;96.40;;;;;;5099624;27;20209;-81
2023/06/26 03:24:07;;;;;;;2.05;1.27;;;23.20;96.40;;;;;;5101836;27;20199;-82
2023/06/26 03:26:37;;;;;;;1.75;1.10;;;23.20;96.40;;;;;;5101056;27;20281;-83
2023/06/26 03:29:05;;;;;;;0.43;0.30;;;23.20;96.40;;;;;;5106502;28;20276;-83
2023/06/26 03:31:34;;;;;;;1.23;0.82;;;23.20;96.40;;;;;;5108884;27;20193;-82
2023/06/26 03:34:02;;;;;;;0.20;0.20;;;23.20;96.40;;;;;;5120352;27;20560;-83
2023/06/26 03:36:31;;;;;;;0.40;0.40;;;23.30;96.40;;;;;;5113569;27;20660;-82
2023/06/26 03:39:00;;;;;;;0.75;0.38;;;23.30;96.40;;;;;;5102674;27;20217;-81
2023/06/26 03:41:29;;;;;;;1.67;1.20;;;23.30;96.40;;;;;;5092367;28;20556;-81
2023/06/26 03:44:00;;;;;;;0.20;0.20;;;23.30;96.40;;;;;;5106272;27;20205;-82
2023/06/26 03:46:28;;;;;;;0.68;0.60;;;23.30;96.30;;;;;;5104841;27;20202;-82
2023/06/26 03:48:56;;;;;;;0.30;0.30;;;23.30;96.30;;;;;;5099677;27;20227;-81
2023/06/26 03:51:25;;;;;;;0.38;0.38;;;23.30;96.30;;;;;;5107298;27;20648;-83
2023/06/26 03:53:53;;;;;;;0.57;0.57;;;23.30;96.30;;;;;;5095065;27;20574;-84
2023/06/26 03:56:22;;;;;;;0.75;0.57;;;23.30;96.30;;;;;;5098448;27;20250;-81
2023/06/26 03:58:50;;;;;;;0.50;0.50;;;23.30;96.30;;;;;;5092593;28;20207;-82
2023/06/26 04:01:21;;;;;;;1.25;0.40;;;23.30;96.30;;;;;;5096341;28;20189;-82
2023/06/26 04:03:50;;;;;;;0.47;0.45;;;23.30;96.30;;;;;;5099983;28;20646;-81
2023/06/26 04:06:18;;;;;;;0.68;0.55;;;23.30;96.30;;;;;;5106883;27;20228;-82
2023/06/26 04:08:47;;;;;;;0.22;0.22;;;23.30;96.30;;;;;;5118060;27;20198;-83
2023/06/26 04:11:16;;;;;;;0.20;0.20;;;23.30;96.30;;;;;;5099491;28;20212;-83
2023/06/26 04:13:44;;;;;;;1.13;0.75;;;23.40;96.30;;;;;;5097738;27;20287;-82
2023/06/26 04:16:12;;;;;;;1.42;0.30;;;23.40;96.30;;;;;;5098750;27;20849;-83
2023/06/26 04:18:42;;;;;;;0.28;0.25;;;23.40;96.30;;;;;;5105771;27;20195;-82
2023/06/26 04:21:12;;;;;;;0.52;0.52;;;23.40;96.30;;;;;;5099017;27;20214;-82
2023/06/26 04:23:41;;;;;;;0.20;0.20;;;23.50;96.30;;;;;;5099640;27;20293;-84
2023/06/26 04:26:14;;;;;;;1.08;0.80;;;23.50;96.30;;;;;;5114404;27;20188;-81
2023/06/26 04:28:42;;;;;;;0.20;0.20;;;23.50;96.40;;;;;;5109233;27;20240;-82
2023/06/26 04:31:11;;;;;;;0.82;0.82;;;23.50;96.30;;;;;;5094922;27;20198;-82
2023/06/26 04:33:39;;;;;;;0.38;0.38;;;23.50;96.30;;;;;;5107619;27;20196;-83
2023/06/26 04:36:12;;;;;;;4.85;1.25;;;23.60;96.30;;;;;;5111320;27;20296;-82
2023/06/26 04:38:40;;;;;;;0.30;0.30;;;23.60;96.30;;;;;;5102128;27;20438;-82
2023/06/26 04:41:08;;;;;;;0.40;0.40;;;23.60;96.50;;;;;;5100641;27;20221;-83
2023/06/26 04:43:37;;;;;;;0.20;0.20;;;23.60;96.50;;;;;;5102402;27;20189;-82
2023/06/26 04:46:05;;;;;;;0.60;0.60;;;23.60;96.40;;;;;;5104126;27;20190;-82
2023/06/26 04:48:34;;;;;;;0.30;0.30;;;23.70;96.40;;;;;;5110471;28;20215;-82
2023/06/26 04:51:02;;;;;;;2.40;1.55;;;23.70;96.40;;;;;;5096534;28;20200;-81
2023/06/26 04:53:32;;;;;;;0.43;0.30;;;23.80;96.40;;;;;;5105086;27;20676;-81
2023/06/26 04:56:00;;;;;;;0.40;0.40;;;23.70;96.40;;;;;;5107381;27;20192;-82
2023/06/26 04:58:29;;;;;;;1.70;0.60;;;23.80;96.50;;;;;;5096228;28;20193;-81
2023/06/26 05:00:58;;;;;;;0.35;0.30;;;23.80;96.50;;;;;;5098132;28;20212;-81
2023/06/26 05:03:27;;;;;;;0.20;0.20;;;23.80;96.40;;;;;;5091997;28;20201;-82
2023/06/26 05:05:56;;;;;;;0.65;0.63;;;23.80;96.70;;;;;;5106114;27;20228;-87
2023/06/26 05:08:26;;;;;;;0.52;0.50;;;23.80;96.30;;;;;;5094564;28;20268;-82
2023/06/26 05:10:58;;;;;;;1.88;0.73;;;23.90;96.30;;;;;;5094305;28;20181;-83
2023/06/26 05:13:27;;;;;;;0.30;0.30;;;23.90;96.20;;;;;;5099060;28;20264;-83
2023/06/26 05:15:55;;;;;;;1.17;1.00;;;24.00;96.10;;;;;;5094587;28;20277;-83
2023/06/26 05:18:24;;;;;;;0.60;0.60;;;24.00;96.10;;;;;;5103624;28;20208;-82
2023/06/26 05:20:52;;;;;;;0.30;0.28;;;24.00;96.10;;;;;;5095748;28;20229;-83
2023/06/26 05:23:21;;;;;;;0.40;0.40;;;24.10;96.10;;;;;;5111692;28;20196;-83
2023/06/26 05:25:50;;;;;;;1.70;0.90;;;24.10;96.10;;;;;;5090804;28;20206;-83
2023/06/26 05:28:20;;;;;;;0.77;0.57;;;24.10;96.10;;;;;;5097273;28;20205;-81
2023/06/26 05:30:49;;;;;;;0.50;0.50;;;24.10;96.00;;;;;;5100821;28;20193;-80
2023/06/26 05:33:19;;;;;;;4.13;1.33;;;24.10;96.00;;;;;;5100547;28;20198;-83
2023/06/26 05:35:49;;;;;;;0.88;0.57;;;24.10;96.00;;;;;;5107353;28;20201;-83
2023/06/26 05:38:18;;;;;;;1.00;0.88;;;24.10;95.90;;;;;;5094903;28;20730;-83
2023/06/26 05:40:47;;;;;;;1.10;0.98;;;24.20;96.00;;;;;;5104392;28;20205;-84
2023/06/26 05:43:16;;;;;;;0.50;0.50;;;24.20;96.00;;;;;;5103118;28;20198;-83
2023/06/26 05:45:46;;;;;;;1.55;0.68;;;24.20;96.00;;;;;;5101494;28;20272;-84
2023/06/26 05:48:14;;;;;;;0.63;0.60;;;24.30;96.10;;;;;;5105416;28;20599;-84
2023/06/26 05:50:45;;;;;;;3.80;1.42;;;24.30;96.00;;;;;;5096710;28;20200;-82
2023/06/26 05:53:13;;;;;;;1.15;0.95;;;24.30;95.90;;;;;;5094654;28;20205;-82
2023/06/26 05:55:42;;;;;;;0.40;0.40;;;24.40;95.90;;;;;;5102764;27;20688;-83
2023/06/26 05:58:12;;;;;;;0.50;0.50;;;24.50;95.80;;;;;;5096793;27;20253;-85
2023/06/26 06:00:41;;;;;;;1.40;0.85;;;24.50;95.80;;;;;;5095269;28;20220;-85
2023/06/26 06:03:12;;;;;;;3.92;1.20;;;24.50;95.80;;;;;;5098061;28;20646;-84
2023/06/26 06:05:40;;;;;;;0.50;0.50;;;24.50;95.90;;;;;;5103057;28;20225;-84
2023/06/26 06:08:09;;;;;;;1.05;0.60;;;24.50;95.90;;;;;;5095542;28;20262;-81
2023/06/26 06:10:37;;;;;;;0.70;0.60;;;24.60;95.90;;;;;;5106159;27;20194;-83
2023/06/26 06:13:06;;;;;;;1.05;0.73;;;24.70;96.00;;;;;;5105044;27;20208;-84
2023/06/26 06:15:34;;;;;;;0.95;0.88;;;24.70;95.90;;;;;;5104135;28;20186;-83
2023/06/26 06:18:02;;;;;;;0.40;0.40;;;24.80;96.00;;;;;;5094090;28;20209;-82
2023/06/26 06:20:33;;;;;;;0.68;0.68;;;24.80;96.00;;;;;;5111946;27;20213;-84
2023/06/26 06:23:01;;;;;;;0.30;0.30;;;24.80;96.00;;;;;;5094562;28;20189;-84
2023/06/26 06:25:30;;;;;;;2.88;1.20;;;24.80;96.00;;;;;;5096190;28;20205;-85
2023/06/26 06:27:58;;;;;;;0.70;0.70;;;24.80;96.00;;;;;;5099645;28;20220;-84
2023/06/26 06:30:27;;;;;;;0.50;0.50;;;24.90;96.00;;;;;;5093461;27;20186;-84
2023/06/26 06:33:12;;;;;;;0.68;0.68;;;24.90;95.80;;;;;;5089675;28;20197;-85
2023/06/26 06:35:42;;;;;;;0.50;0.40;;;25.00;95.70;;;;;;5105264;27;20200;-85
2023/06/26 06:38:11;;;;;;;0.50;0.50;;;25.00;95.70;;;;;;5097539;28;20185;-82
2023/06/26 06:40:39;;;;;;;24.85;1.65;;;25.00;95.50;;;;;;5103229;28;20225;-83
2023/06/26 06:43:08;;;;;;;0.30;0.30;;;25.00;95.50;;;;;;5097873;28;20221;-83
2023/06/26 06:45:37;;;;;;;0.43;0.40;;;25.10;95.40;;;;;;5110514;27;20198;-83
2023/06/26 06:48:06;;;;;;;7.95;0.60;;;25.10;95.20;;;;;;5102424;28;20580;-84
2023/06/26 06:50:34;;;;;;;0.65;0.50;;;25.10;95.00;;;;;;5103079;28;20227;-83
2023/06/26 06:53:04;;;;;;;1.02;0.93;;;25.20;94.90;;;;;;5099380;28;20651;-83
2023/06/26 06:55:33;;;;;;;0.30;0.30;;;25.20;94.80;;;;;;5093280;28;20493;-83
2023/06/26 06:58:01;;;;;;;0.85;0.75;;;25.20;94.70;;;;;;5094085;28;20201;-83
2023/06/26 07:00:33;;;;;;;0.70;0.70;;;25.20;94.60;;;;;;5106992;28;20226;-83
2023/06/26 07:03:01;;;;;;;0.32;0.32;;;25.30;94.50;;;;;;5105827;28;20208;-83
2023/06/26 07:05:30;;;;;;;0.85;0.43;;;25.30;94.50;;;;;;5096465;27;20655;-82
2023/06/26 07:07:58;;;;;;;0.52;0.52;;;25.40;94.50;;;;;;5094528;28;20212;-82
2023/06/26 07:10:32;;;;;;;0.40;0.38;;;25.40;94.40;;;;;;5102509;28;20201;-82
2023/06/26 07:13:00;;;;;;;0.77;0.55;;;25.40;94.40;;;;;;5106981;28;20189;-82
2023/06/26 07:15:29;;;;;;;0.63;0.63;;;25.40;94.00;;;;;;5100286;27;20205;-84
2023/06/26 07:17:57;;;;;;;0.73;0.73;;;25.50;93.80;;;;;;5118623;27;20193;-83
2023/06/26 07:20:26;;;;;;;1.27;0.65;;;25.50;93.70;;;;;;5127380;27;20210;-83
2023/06/26 07:22:54;;;;;;;0.63;0.40;;;25.50;93.60;;;;;;5101947;28;20758;-84
2023/06/26 07:25:22;;;;;;;0.30;0.30;;;25.60;93.60;;;;;;5108447;28;20197;-83
2023/06/26 07:27:52;;;;;;;0.20;0.20;;;25.60;93.60;;;;;;5113373;27;20188;-83
2023/06/26 07:30:20;;;;;;;0.30;0.30;;;25.60;93.50;;;;;;5101113;27;20250;-83
2023/06/26 07:32:49;;;;;;;0.38;0.38;;;25.70;93.50;;;;;;5101341;28;20647;-83
2023/06/26 07:35:18;;;;;;;0.45;0.43;;;25.70;93.10;;;;;;5105264;27;20200;-83
2023/06/26 07:37:46;;;;;;;0.73;0.35;;;25.70;93.00;;;;;;5095129;28;20190;-82
2023/06/26 07:40:17;;;;;;;0.90;0.50;;;25.80;93.00;;;;;;5105555;28;20565;-83
2023/06/26 07:42:46;;;;;;;0.38;0.38;;;25.80;92.90;;;;;;5097384;28;20208;-83
2023/06/26 07:45:16;;;;;;;0.68;0.63;;;25.90;92.90;;;;;;5108551;28;20333;-81
2023/06/26 07:47:44;;;;;;;0.57;0.57;;;26.00;92.70;;;;;;5093483;28;20190;-82
2023/06/26 07:50:15;;;;;;;0.80;0.70;;;26.00;92.50;;;;;;5109036;27;20200;-82
2023/06/26 07:52:44;;;;;;;0.63;0.63;;;26.10;92.50;;;;;;5104932;27;20185;-84
2023/06/26 07:55:12;;;;;;;1.10;0.90;;;26.20;92.00;;;;;;5094712;27;20336;-83
2023/06/26 07:57:40;;;;;;;0.28;0.28;;;26.20;91.70;;;;;;5093338;28;20204;-85
2023/06/26 08:00:10;;;;;;;0.60;0.60;;;26.30;91.90;;;;;;5100264;28;20197;-83
2023/06/26 08:02:40;;;;;;;0.50;0.50;;;26.40;91.70;;;;;;5096250;28;20274;-83
2023/06/26 08:05:08;;;;;;;0.70;0.70;;;26.40;91.20;;;;;;5098585;27;20312;-83
2023/06/26 08:07:37;;;;;;;0.70;0.70;;;26.50;91.30;;;;;;5096563;27;20281;-85
2023/06/26 08:10:06;;;;;;;0.22;0.22;;;26.50;91.40;;;;;;5095886;27;20201;-84
2023/06/26 08:12:36;;;;;;;0.28;0.28;;;26.50;91.40;;;;;;5097668;27;20276;-84
2023/06/26 08:15:06;;;;;;;2.65;1.50;;;26.60;91.20;;;;;;5098810;28;21351;-83
2023/06/26 08:17:35;;;;;;;0.80;0.65;;;26.60;91.00;;;;;;5112381;27;20545;-82
2023/06/26 08:20:08;;;;;;;0.50;0.50;;;26.70;90.80;;;;;;5095759;28;20305;-83
2023/06/26 08:22:37;;;;;;;0.40;0.40;;;26.80;90.50;;;;;;5092090;28;20685;-83
2023/06/26 08:25:06;;;;;;;1.88;1.17;;;26.80;90.70;;;;;;5092505;28;20682;-82
2023/06/26 08:27:34;;;;;;;0.63;0.40;;;26.80;90.20;;;;;;5106264;27;20564;-84
2023/06/26 08:30:04;;;;;;;0.30;0.30;;;26.90;90.00;;;;;;5105121;27;20188;-84
2023/06/26 08:32:33;;;;;;;0.57;0.50;;;26.90;90.10;;;;;;5091013;28;20194;-78
2023/06/26 08:35:01;;;;;;;1.02;0.93;;;27.00;90.10;;;;;;5087912;28;20677;-80
2023/06/26 08:37:32;;;;;;;1.88;1.17;;;27.00;89.40;;;;;;5092288;27;20497;-79
2023/06/26 08:40:01;;;;;;;0.60;0.60;;;27.00;88.70;;;;;;5099281;28;20213;-83
2023/06/26 08:42:30;;;;;;;0.47;0.47;;;27.10;89.00;;;;;;5098884;28;20217;-83
2023/06/26 08:44:58;;;;;;;0.32;0.28;;;27.10;88.80;;;;;;5090483;28;20413;-82
2023/06/26 08:47:31;;;;;;;0.40;0.40;;;27.20;89.20;;;;;;5113087;27;20185;-83
2023/06/26 08:50:07;;;;;;;1.70;0.57;;;27.30;89.40;;;;;;5094682;27;20196;-85
2023/06/26 08:52:44;;;;;;;0.63;0.60;;;27.30;87.90;;;;;;5093272;28;20198;-85
2023/06/26 08:55:16;;;;;;;0.40;0.38;;;27.40;88.30;;;;;;5096270;28;20208;-84
2023/06/26 08:57:44;;;;;;;1.13;0.85;;;27.50;88.00;;;;;;5101865;28;20279;-82
2023/06/26 09:00:16;;;;;;;0.60;0.60;;;27.40;86.70;;;;;;5099459;28;20450;-82
2023/06/26 09:02:45;;;;;;;0.50;0.50;;;27.40;85.60;;;;;;5104593;28;20217;-83
2023/06/26 09:05:14;;;;;;;0.32;0.30;;;27.50;85.70;;;;;;5090429;28;20248;-83
2023/06/26 09:07:44;;;;;;;1.13;1.05;;;27.50;85.40;;;;;;5092374;28;20661;-82
2023/06/26 09:10:13;;;;;;;1.40;0.68;;;27.60;85.00;;;;;;5090448;28;20333;-83
2023/06/26 09:12:42;;;;;;;0.20;0.20;;;27.70;85.50;;;;;;5100861;28;20280;-82
2023/06/26 09:15:10;;;;;;;0.77;0.70;;;27.70;85.80;;;;;;5093898;28;20193;-80
2023/06/26 09:17:41;;;;;;;2.00;0.65;;;27.70;84.10;;;;;;5105434;28;20284;-84
2023/06/26 09:20:11;;;;;;;0.32;0.32;;;27.60;84.30;;;;;;5096799;28;20193;-82
2023/06/26 09:22:44;;;;;;;0.63;0.63;;;27.60;84.60;;;;;;5098317;28;20220;-82
2023/06/26 09:25:12;;;;;;;0.98;0.50;;;27.50;85.00;;;;;;5105215;28;20194;-81
2023/06/26 09:27:43;;;;;;;0.30;0.30;;;27.60;85.40;;;;;;5105255;28;20193;-83
2023/06/26 09:30:12;;;;;;;0.70;0.70;;;27.60;85.10;;;;;;5098535;27;20236;-82
2023/06/26 09:32:41;;;;;;;0.60;0.57;;;27.70;85.00;;;;;;5099378;27;20568;-83
2023/06/26 09:35:10;;;;;;;0.63;0.30;;;27.80;84.80;;;;;;5100802;28;20646;-84
2023/06/26 09:37:39;;;;;;;0.68;0.52;;;27.70;84.10;;;;;;5093615;28;20201;-81
2023/06/26 09:40:10;;;;;;;2.05;1.05;;;27.80;84.30;;;;;;5106546;27;20399;-82
2023/06/26 09:42:39;;;;;;;2.05;1.00;;;27.90;83.90;;;;;;5100972;27;20223;-84
2023/06/26 09:45:07;;;;;;;0.80;0.63;;;28.00;83.80;;;;;;5107722;27;20194;-83
2023/06/26 09:47:36;;;;;;;0.43;0.43;;;28.00;84.10;;;;;;5098836;28;20666;-84
2023/06/26 09:50:05;;;;;;;0.40;0.40;;;28.00;83.30;;;;;;5102603;27;20197;-82
2023/06/26 09:52:35;;;;;;;0.55;0.50;;;28.00;82.60;;;;;;5096077;27;20203;-82
2023/06/26 09:55:11;;;;;;;0.50;0.50;;;28.10;82.30;;;;;;5102494;27;20536;-82
2023/06/26 09:57:40;;;;;;;0.73;0.70;;;28.10;82.40;;;;;;5102840;27;20192;-82
2023/06/26 10:00:10;;;;;;;0.98;0.38;;;28.10;81.90;;;;;;5099403;27;20555;-81
2023/06/26 10:02:39;;;;;;;0.90;0.55;;;28.20;81.90;;;;;;5101124;27;20213;-82
2023/06/26 10:05:07;;;;;;;1.05;0.32;;;28.10;81.00;;;;;;5096736;27;20219;-83
2023/06/26 10:07:38;;;;;;;0.40;0.40;;;28.20;80.30;;;;;;5091890;28;20198;-81
2023/06/26 10:10:08;;;;;;;0.55;0.55;;;28.30;80.90;;;;;;5105552;27;20200;-83
2023/06/26 10:12:37;;;;;;;1.13;0.82;;;28.40;80.70;;;;;;5102727;27;20286;-83
2023/06/26 10:15:12;;;;;;;0.22;0.22;;;28.40;80.30;;;;;;5097398;28;20194;-83
2023/06/26 10:17:44;;;;;;;0.90;0.77;;;28.60;80.30;;;;;;5104076;27;20196;-81
2023/06/26 10:20:18;;;;;;;0.50;0.50;;;28.60;79.20;;;;;;5099669;27;20194;-83
2023/06/26 10:22:48;;;;;;;0.25;0.20;;;28.60;75.70;;;;;;5095757;28;20209;-83
2023/06/26 10:25:20;;;;;;;0.20;0.20;;;28.60;75.00;;;;;;5103112;28;20198;-83
2023/06/26 10:27:56;;;;;;;0.40;0.40;;;28.70;74.60;;;;;;5098394;28;20190;-83
2023/06/26 10:30:28;;;;;;;0.32;0.30;;;28.70;72.70;;;;;;5105801;27;20712;-82
2023/06/26 10:32:57;;;;;;;0.20;0.20;;;28.70;72.80;;;;;;5111822;27;20193;-81
2023/06/26 10:35:27;;;;;;;0.30;0.30;;;28.70;72.90;;;;;;5089888;27;20193;-82
2023/06/26 10:38:03;;;;;;;0.20;0.20;;;28.70;73.10;;;;;;5103130;27;20216;-83
2023/06/26 10:40:42;;;;;;;0.50;0.45;;;28.90;74.30;;;;;;5093583;28;20576;-83
2023/06/26 10:43:13;;;;;;;0.20;0.20;;;28.80;73.90;;;;;;5105771;27;20204;-83
2023/06/26 10:45:46;;;;;;;0.20;0.20;;;28.90;73.90;;;;;;5105340;28;20203;-84
2023/06/26 10:48:16;;;;;;;0.22;0.22;;;28.90;71.90;;;;;;5099807;28;20208;-82
2023/06/26 10:50:48;;;;;;;0.25;0.25;;;28.90;71.10;;;;;;5093040;28;20247;-84
2023/06/26 10:53:24;;;;;;;0.28;0.28;;;29.00;70.90;;;;;;5107723;28;20277;-84
2023/06/26 10:55:57;;;;;;;0.15;0.15;;;29.10;69.50;;;;;;5101153;27;20193;-83
2023/06/26 10:58:31;;;;;;;1.20;0.60;;;29.10;69.00;;;;;;5099954;27;20196;-82
2023/06/26 11:01:19;;;;;;;0.30;0.30;;;29.20;69.60;;;;;;5097237;27;20221;-83
2023/06/26 11:03:50;;;;;;;0.40;0.40;;;29.30;69.10;;;;;;5101987;27;20225;-82
2023/06/26 11:06:20;;;;;;;0.55;0.40;;;29.30;68.60;;;;;;5107985;28;20231;-83
2023/06/26 11:08:50;;;;;;;0.20;0.20;;;29.40;66.90;;;;;;5098563;27;20632;-82
2023/06/26 11:11:18;;;;;;;0.45;0.43;;;29.40;66.40;;;;;;5093775;28;20204;-83
2023/06/26 11:13:49;;;;;;;0.20;0.20;;;29.50;65.50;;;;;;5103701;28;20203;-82
2023/06/26 11:16:17;;;;;;;0.45;0.35;;;29.60;66.70;;;;;;5093070;28;20197;-82
2023/06/26 11:18:46;;;;;;;0.20;0.20;;;29.60;66.60;;;;;;5095446;27;20197;-84
2023/06/26 11:21:15;;;;;;;0.73;0.63;;;29.80;66.40;;;;;;5098180;28;20197;-83
2023/06/26 11:23:46;;;;;;;0.52;0.50;;;29.80;66.60;;;;;;5109681;27;20677;-83
2023/06/26 11:26:16;;;;;;;0.35;0.30;;;29.80;64.40;;;;;;5098341;28;20550;-84
2023/06/26 11:28:50;;;;;;;0.20;0.20;;;29.90;64.70;;;;;;5109512;27;20190;-84
2023/06/26 11:31:29;;;;;;;0.85;0.50;;;30.10;63.70;;;;;;5100240;28;20193;-85
2023/06/26 11:34:00;;;;;;;0.57;0.30;;;30.20;63.70;;;;;;5097597;27;20639;-84
2023/06/26 11:36:28;;;;;;;0.20;0.20;;;30.20;63.20;;;;;;5097641;28;20565;-84
2023/06/26 11:38:57;;;;;;;0.20;0.20;;;30.10;62.70;;;;;;5096620;28;20195;-82
2023/06/26 11:41:28;;;;;;;0.10;0.10;;;30.10;62.70;;;;;;5103952;28;20562;-86
2023/06/26 11:44:02;;;;;;;0.15;0.15;;;30.10;63.40;;;;;;5097537;28;20213;-83
2023/06/26 11:46:33;;;;;;;0.20;0.20;;;30.10;63.60;;;;;;5097685;28;20186;-84
2023/06/26 11:49:04;;;;;;;0.57;0.30;;;30.10;63.40;;;;;;5090223;28;20194;-84
2023/06/26 11:51:33;;;;;;;3.85;0.93;;;30.20;62.20;;;;;;5090860;28;20194;-84
2023/06/26 11:54:03;;;;;;;0.40;0.40;;;30.20;61.30;;;;;;5095170;28;20200;-84
2023/06/26 11:56:32;;;;;;;0.20;0.20;;;30.20;61.50;;;;;;5100921;27;20284;-83
2023/06/26 11:59:04;;;;;;;0.28;0.28;;;30.20;60.60;;;;;;5097507;27;20215;-82
2023/06/26 12:01:37;;;;;;;0.47;0.47;;;30.10;60.30;;;;;;5098021;27;20554;-83
2023/06/26 12:04:08;;;;;;;1.10;0.68;;;30.10;60.90;;;;;;5098956;27;20700;-84
2023/06/26 12:06:39;;;;;;;0.40;0.38;;;30.00;59.40;;;;;;5106509;27;20231;-84
2023/06/26 12:09:10;;;;;;;0.20;0.20;;;29.90;58.80;;;;;;5097967;27;20232;-83
2023/06/26 12:11:41;;;;;;;0.30;0.30;;;29.90;59.50;;;;;;5093548;27;20193;-85
2023/06/26 12:14:11;;;;;;;0.20;0.20;;;29.90;60.30;;;;;;5090147;28;20185;-84
2023/06/26 12:16:43;;;;;;;0.30;0.30;;;29.90;60.00;;;;;;5101611;27;20208;-84
2023/06/26 12:19:12;;;;;;;0.45;0.30;;;29.90;60.20;;;;;;5091095;27;20228;-84
2023/06/26 12:21:52;;;;;;;0.20;0.20;;;29.90;60.00;;;;;;5099246;27;20194;-84
2023/06/26 12:24:21;;;;;;;0.25;0.25;;;29.90;60.40;;;;;;5092470;28;20212;-83
2023/06/26 12:26:53;;;;;;;0.20;0.20;;;29.90;60.40;;;;;;5102968;27;20189;-84
2023/06/26 12:29:29;;;;;;;0.43;0.40;;;30.00;60.20;;;;;;5098621;28;20280;-83
2023/06/26 12:31:58;;;;;;;0.70;0.57;;;30.10;60.30;;;;;;5105298;27;20199;-84
2023/06/26 12:34:29;;;;;;;0.30;0.30;;;30.20;60.50;;;;;;5090938;28;20204;-84
2023/06/26 12:37:02;;;;;;;0.50;0.50;;;30.20;58.00;;;;;;5104997;27;20212;-84
2023/06/26 12:39:45;;;;;;;0.30;0.30;;;30.30;58.40;;;;;;5100475;27;20190;-83
2023/06/26 12:42:15;;;;;;;0.30;0.30;;;30.40;59.50;;;;;;5098386;27;20193;-82
2023/06/26 12:44:45;;;;;;;0.30;0.30;;;30.60;59.30;;;;;;5091190;28;20222;-83
2023/06/26 12:47:14;;;;;;;0.65;0.20;;;30.70;59.70;;;;;;5097476;28;20198;-82
2023/06/26 12:49:44;;;;;;;0.40;0.30;;;30.90;58.50;;;;;;5090862;28;20193;-83
2023/06/26 12:52:14;;;;;;;0.63;0.63;;;31.10;59.20;;;;;;5092801;27;20221;-83
2023/06/26 12:54:44;;;;;;;0.73;0.65;;;31.40;59.90;;;;;;5108233;27;20612;-84
2023/06/26 12:57:13;;;;;;;0.22;0.22;;;31.60;60.00;;;;;;5104552;28;20208;-83
2023/06/26 12:59:42;;;;;;;0.45;0.45;;;31.80;60.10;;;;;;5094961;28;20181;-82
2023/06/26 13:02:13;;;;;;;0.20;0.20;;;31.90;60.10;;;;;;5105896;27;20208;-83